Time;durP1;ratioP1;P1;durP2;ratioP2;P2;SDS_P1;SDS_P2;PMS_P1;PMS_P2;Temp;Humidity;BMP_temperature;BMP_pressure;BME280_temperature;BME280_humidity;BME280_pressure;Samples;Min_cycle;Max_cycle;Signal;HPM_P1;HPM_P2
2021/04/06 00:02:27;;;;;;;3.90;1.40;;;-0.30;99.90;;;;;;4846816;29;20213;-79
2021/04/06 00:04:56;;;;;;;1.88;1.30;;;-0.30;99.90;;;;;;4846908;29;20314;-78
2021/04/06 00:07:23;;;;;;;5.55;1.63;;;-0.20;99.90;;;;;;4847321;29;20217;-79
2021/04/06 00:09:52;;;;;;;1.65;1.08;;;-0.10;99.90;;;;;;4847622;29;20237;-79
2021/04/06 00:12:20;;;;;;;1.00;1.00;;;-0.10;99.90;;;;;;4863133;29;20193;-78
2021/04/06 00:14:48;;;;;;;1.38;0.98;;;-0.10;99.90;;;;;;4866225;29;20257;-78
2021/04/06 00:17:17;;;;;;;1.58;1.48;;;0.00;99.90;;;;;;4848299;29;20213;-79
2021/04/06 00:19:46;;;;;;;3.40;1.40;;;0.00;99.90;;;;;;4847563;29;20209;-79
2021/04/06 00:22:16;;;;;;;3.08;1.27;;;0.00;99.90;;;;;;4846924;29;20251;-79
2021/04/06 00:24:46;;;;;;;1.40;1.30;;;0.00;99.90;;;;;;4847349;29;20624;-79
2021/04/06 00:27:16;;;;;;;2.30;1.67;;;0.00;99.90;;;;;;4849487;29;20212;-79
2021/04/06 00:29:45;;;;;;;1.67;1.45;;;-0.10;99.90;;;;;;4848679;29;20264;-80
2021/04/06 00:32:13;;;;;;;1.92;1.73;;;-0.10;99.90;;;;;;4848185;29;20219;-79
2021/04/06 00:34:41;;;;;;;1.70;1.60;;;-0.10;99.90;;;;;;4849056;29;20224;-79
2021/04/06 00:37:11;;;;;;;2.38;2.17;;;-0.20;99.90;;;;;;4849623;29;20219;-80
2021/04/06 00:39:39;;;;;;;1.80;1.50;;;-0.20;99.90;;;;;;4849707;29;20217;-80
2021/04/06 00:42:09;;;;;;;1.63;1.52;;;-0.20;99.90;;;;;;4848286;29;20219;-80
2021/04/06 00:44:41;;;;;;;2.42;1.90;;;-0.20;99.90;;;;;;4848307;29;20213;-80
2021/04/06 00:47:09;;;;;;;3.20;1.92;;;-0.10;99.90;;;;;;4847586;29;20616;-80
2021/04/06 00:49:37;;;;;;;1.88;1.55;;;-0.10;99.90;;;;;;4846524;29;20240;-80
2021/04/06 00:52:06;;;;;;;2.80;1.70;;;-0.30;99.90;;;;;;4846069;29;20216;-80
2021/04/06 00:54:34;;;;;;;2.72;2.10;;;-0.40;99.90;;;;;;4846602;29;20612;-80
2021/04/06 00:57:02;;;;;;;1.45;1.35;;;-0.30;99.90;;;;;;4846836;29;20213;-80
2021/04/06 00:59:30;;;;;;;2.20;2.10;;;-0.30;99.90;;;;;;4846891;29;20235;-80
2021/04/06 01:01:59;;;;;;;3.65;2.10;;;-0.40;99.90;;;;;;4847074;29;20216;-80
2021/04/06 01:04:27;;;;;;;2.53;2.08;;;-0.50;99.90;;;;;;4846595;29;20643;-80
2021/04/06 01:07:02;;;;;;;1.65;1.55;;;-0.50;99.90;;;;;;4846641;29;20213;-80
2021/04/06 01:09:33;;;;;;;4.55;3.15;;;-0.50;99.90;;;;;;4846956;29;20240;-80
2021/04/06 01:12:00;;;;;;;4.25;1.88;;;-0.50;99.90;;;;;;4846243;29;20221;-80
2021/04/06 01:14:28;;;;;;;2.03;1.92;;;-0.40;99.90;;;;;;4846521;29;20220;-80
2021/04/06 01:16:55;;;;;;;8.15;2.75;;;-0.50;99.90;;;;;;4846424;29;20217;-80
2021/04/06 01:19:23;;;;;;;2.63;2.35;;;-0.50;99.90;;;;;;4845051;29;20221;-80
2021/04/06 01:21:50;;;;;;;1.90;1.80;;;-0.60;99.90;;;;;;4845777;29;20221;-80
2021/04/06 01:24:19;;;;;;;7.43;3.20;;;-0.60;99.90;;;;;;4846147;29;20220;-80
2021/04/06 01:26:47;;;;;;;5.45;2.35;;;-0.50;99.90;;;;;;4846398;29;20255;-80
2021/04/06 01:29:14;;;;;;;3.25;1.85;;;-0.50;99.90;;;;;;4846345;29;20241;-80
2021/04/06 01:31:40;;;;;;;3.03;2.65;;;-0.50;99.90;;;;;;4846045;29;20380;-79
2021/04/06 01:34:06;;;;;;;3.40;3.17;;;-0.50;99.90;;;;;;4845828;29;20216;-80
2021/04/06 01:36:33;;;;;;;3.08;2.75;;;-0.60;99.90;;;;;;4845661;29;20232;-79
2021/04/06 01:38:59;;;;;;;2.55;2.35;;;-0.70;99.90;;;;;;4845733;29;20595;-79
2021/04/06 01:41:26;;;;;;;2.50;2.30;;;-0.70;99.90;;;;;;4845349;29;20231;-79
2021/04/06 01:43:53;;;;;;;2.83;2.63;;;-0.80;99.90;;;;;;4845801;29;20220;-79
2021/04/06 01:46:28;;;;;;;3.50;2.35;;;-0.80;99.90;;;;;;4845461;29;20577;-79
2021/04/06 01:48:55;;;;;;;2.75;2.40;;;-0.80;99.90;;;;;;4845758;29;20380;-79
2021/04/06 01:51:22;;;;;;;10.43;2.45;;;-0.80;99.90;;;;;;4844999;29;20213;-78
2021/04/06 01:53:49;;;;;;;2.55;2.28;;;-0.80;99.90;;;;;;4845659;29;20281;-79
2021/04/06 01:56:23;;;;;;;2.85;2.35;;;-0.80;99.90;;;;;;4845454;29;20229;-79
2021/04/06 01:58:51;;;;;;;1.75;1.65;;;-0.80;99.90;;;;;;4845613;29;20227;-79
2021/04/06 02:01:20;;;;;;;2.88;2.45;;;-0.80;99.90;;;;;;4845067;29;20683;-79
2021/04/06 02:03:51;;;;;;;7.32;2.70;;;-0.90;99.90;;;;;;4844886;29;20627;-79
2021/04/06 02:06:18;;;;;;;2.75;2.55;;;-0.90;99.90;;;;;;4844831;29;20581;-79
2021/04/06 02:08:47;;;;;;;5.10;2.42;;;-0.90;99.90;;;;;;4845213;29;20268;-79
2021/04/06 02:11:17;;;;;;;2.83;2.63;;;-0.90;99.90;;;;;;4844855;29;20209;-79
2021/04/06 02:13:44;;;;;;;2.13;1.85;;;-0.90;99.90;;;;;;4844646;29;20213;-78
2021/04/06 02:16:11;;;;;;;4.40;2.20;;;-0.90;99.90;;;;;;4844897;29;20310;-79
2021/04/06 02:18:37;;;;;;;3.38;2.60;;;-0.90;99.90;;;;;;4844563;29;20392;-79
2021/04/06 02:21:05;;;;;;;3.63;2.78;;;-0.90;99.90;;;;;;4844337;29;20220;-79
2021/04/06 02:23:42;;;;;;;3.50;2.35;;;-0.90;99.90;;;;;;4844331;29;20216;-78
2021/04/06 02:26:09;;;;;;;2.72;1.98;;;-0.90;99.90;;;;;;4843831;29;20247;-79
2021/04/06 02:28:36;;;;;;;1.98;1.83;;;-0.90;99.90;;;;;;4843406;29;20332;-79
2021/04/06 02:31:04;;;;;;;3.88;2.70;;;-0.90;99.90;;;;;;4844194;29;20277;-79
2021/04/06 02:33:33;;;;;;;4.13;2.10;;;-1.00;99.90;;;;;;4844343;29;20217;-79
2021/04/06 02:36:01;;;;;;;1.50;1.40;;;-1.00;99.90;;;;;;4846126;29;20239;-79
2021/04/06 02:38:32;;;;;;;2.60;2.22;;;-1.00;99.90;;;;;;4844088;29;20296;-78
2021/04/06 02:41:08;;;;;;;2.47;2.22;;;-1.00;99.90;;;;;;4843943;29;20250;-78
2021/04/06 02:43:45;;;;;;;2.40;1.83;;;-1.00;99.90;;;;;;4846345;29;20220;-78
2021/04/06 02:46:14;;;;;;;2.83;1.85;;;-1.00;99.90;;;;;;4843381;29;20229;-78
2021/04/06 02:48:41;;;;;;;3.03;1.80;;;-1.00;99.90;;;;;;4837653;29;20671;-78
2021/04/06 02:51:09;;;;;;;3.28;2.40;;;-1.00;99.90;;;;;;4836995;29;20630;-78
2021/04/06 02:53:37;;;;;;;2.83;1.98;;;-1.10;99.90;;;;;;4837654;29;20222;-79
2021/04/06 02:56:04;;;;;;;1.73;1.63;;;-1.10;99.90;;;;;;4838628;29;20233;-79
2021/04/06 02:58:39;;;;;;;2.95;2.40;;;-1.20;99.90;;;;;;4830002;29;20237;-79
2021/04/06 03:01:12;;;;;;;2.63;2.38;;;-1.20;99.90;;;;;;4829588;29;20217;-78
2021/04/06 03:03:39;;;;;;;2.67;2.30;;;-1.20;99.90;;;;;;4828932;29;20221;-78
2021/04/06 03:06:08;;;;;;;2.85;2.05;;;-1.20;99.90;;;;;;4828851;29;20316;-78
2021/04/06 03:08:35;;;;;;;1.70;0.88;;;-1.20;99.90;;;;;;4828667;29;20266;-79
2021/04/06 03:11:03;;;;;;;6.05;2.83;;;-1.20;99.90;;;;;;4829319;29;20596;-78
2021/04/06 03:13:29;;;;;;;2.67;1.33;;;-1.20;99.90;;;;;;4828977;29;20229;-78
2021/04/06 03:15:57;;;;;;;1.90;1.80;;;-1.20;99.90;;;;;;4829268;29;20321;-78
2021/04/06 03:18:31;;;;;;;10.40;2.25;;;-1.20;99.90;;;;;;4828688;29;20716;-78
2021/04/06 03:21:01;;;;;;;2.33;2.00;;;-1.20;99.90;;;;;;4828627;29;20242;-78
2021/04/06 03:23:31;;;;;;;2.25;2.10;;;-1.20;99.90;;;;;;4828096;29;20218;-78
2021/04/06 03:25:58;;;;;;;4.10;3.00;;;-1.20;99.90;;;;;;4828414;29;20303;-78
2021/04/06 03:28:32;;;;;;;4.50;2.67;;;-1.20;99.90;;;;;;4828889;29;20247;-79
2021/04/06 03:31:09;;;;;;;2.08;1.95;;;-1.20;99.90;;;;;;4828507;29;20230;-79
2021/04/06 03:33:39;;;;;;;4.57;2.38;;;-1.20;99.90;;;;;;4828370;29;20600;-78
2021/04/06 03:36:06;;;;;;;3.22;2.85;;;-1.10;99.90;;;;;;4828579;29;20238;-78
2021/04/06 03:38:34;;;;;;;3.85;2.95;;;-1.10;99.90;;;;;;4827851;29;20290;-78
2021/04/06 03:41:01;;;;;;;2.58;2.38;;;-1.10;99.90;;;;;;4828015;29;20222;-78
2021/04/06 03:43:27;;;;;;;4.20;2.47;;;-1.10;99.90;;;;;;4827741;29;20214;-78
2021/04/06 03:45:56;;;;;;;3.85;2.17;;;-1.10;99.90;;;;;;4827294;29;20777;-78
2021/04/06 03:48:24;;;;;;;5.03;2.67;;;-1.20;99.90;;;;;;4827372;29;20210;-78
2021/04/06 03:50:50;;;;;;;4.88;3.65;;;-1.10;99.90;;;;;;4827889;29;20220;-78
2021/04/06 03:53:16;;;;;;;4.00;2.65;;;-1.10;99.90;;;;;;4842386;29;20221;-77
2021/04/06 03:55:45;;;;;;;2.53;2.33;;;-1.10;99.90;;;;;;4847653;29;20957;-78
2021/04/06 03:58:15;;;;;;;2.70;2.50;;;-1.10;99.90;;;;;;4830892;29;20213;-79
2021/04/06 04:00:41;;;;;;;2.10;2.00;;;-1.10;99.90;;;;;;4828072;29;20309;-79
2021/04/06 04:03:08;;;;;;;2.45;2.28;;;-1.10;99.90;;;;;;4828391;29;20580;-79
2021/04/06 04:05:34;;;;;;;6.03;3.17;;;-1.00;99.90;;;;;;4827741;29;20237;-78
2021/04/06 04:08:01;;;;;;;4.10;3.80;;;-1.00;99.90;;;;;;4828044;29;20217;-78
2021/04/06 04:10:28;;;;;;;3.28;2.78;;;-1.00;99.90;;;;;;4827754;29;20308;-79
2021/04/06 04:12:55;;;;;;;4.18;2.53;;;-1.00;99.90;;;;;;4827560;29;20218;-78
2021/04/06 04:15:22;;;;;;;3.45;3.15;;;-1.00;99.90;;;;;;4827985;29;20249;-78
2021/04/06 04:17:49;;;;;;;2.22;2.00;;;-1.00;99.90;;;;;;4828240;29;20221;-78
2021/04/06 04:20:17;;;;;;;7.40;3.25;;;-1.00;99.90;;;;;;4827549;29;20238;-78
2021/04/06 04:22:44;;;;;;;3.65;2.97;;;-1.00;99.90;;;;;;4826957;29;20213;-79
2021/04/06 04:25:11;;;;;;;3.60;3.22;;;-1.00;99.90;;;;;;4827356;29;20238;-79
2021/04/06 04:27:38;;;;;;;3.30;2.50;;;-1.00;99.90;;;;;;4828691;29;20592;-79
2021/04/06 04:30:07;;;;;;;3.05;2.45;;;-1.00;99.90;;;;;;4828606;29;20218;-79
2021/04/06 04:32:33;;;;;;;2.58;2.30;;;-0.90;99.90;;;;;;4828378;29;20218;-79
2021/04/06 04:34:59;;;;;;;9.70;2.88;;;-0.90;99.90;;;;;;4828327;29;20245;-79
2021/04/06 04:37:26;;;;;;;3.38;2.50;;;-0.80;99.90;;;;;;4828495;29;20229;-78
2021/04/06 04:39:52;;;;;;;3.38;3.08;;;-0.80;99.90;;;;;;4828327;29;20233;-79
2021/04/06 04:42:18;;;;;;;3.28;2.83;;;-0.80;99.90;;;;;;4828306;29;20218;-79
2021/04/06 04:44:44;;;;;;;3.38;2.50;;;-0.70;99.90;;;;;;4828552;29;20264;-79
2021/04/06 04:47:12;;;;;;;2.42;2.22;;;-0.60;99.90;;;;;;4828636;29;20219;-80
2021/04/06 04:49:38;;;;;;;2.72;2.17;;;-0.60;99.90;;;;;;4829503;29;20221;-80
2021/04/06 04:52:04;;;;;;;2.28;2.17;;;-0.60;99.90;;;;;;4829001;29;20219;-79
2021/04/06 04:54:30;;;;;;;2.83;2.63;;;-0.60;99.90;;;;;;4827954;29;20242;-79
2021/04/06 04:56:57;;;;;;;5.70;3.15;;;-0.50;99.90;;;;;;4826920;29;20220;-79
2021/04/06 04:59:23;;;;;;;4.90;1.75;;;-0.50;99.90;;;;;;4827754;29;20234;-79
2021/04/06 05:01:49;;;;;;;3.75;2.92;;;-0.60;99.90;;;;;;4827746;29;20215;-79
2021/04/06 05:04:16;;;;;;;3.15;2.50;;;-0.50;99.90;;;;;;4827598;29;20276;-79
2021/04/06 05:06:42;;;;;;;4.75;3.25;;;-0.50;99.90;;;;;;4827450;29;20229;-79
2021/04/06 05:09:09;;;;;;;4.75;3.00;;;-0.50;99.90;;;;;;4827770;29;20217;-79
2021/04/06 05:11:36;;;;;;;3.85;3.20;;;-0.50;99.90;;;;;;4827581;29;20214;-79
2021/04/06 05:14:02;;;;;;;3.92;3.17;;;-0.50;99.90;;;;;;4827213;29;20278;-79
2021/04/06 05:16:29;;;;;;;3.95;2.67;;;-0.50;99.90;;;;;;4826990;29;20245;-79
2021/04/06 05:18:55;;;;;;;3.35;2.75;;;-0.50;99.90;;;;;;4827404;29;20366;-79
2021/04/06 05:21:22;;;;;;;2.78;2.58;;;-0.50;99.90;;;;;;4827682;29;20578;-79
2021/04/06 05:23:49;;;;;;;2.90;2.35;;;-0.40;99.90;;;;;;4827510;29;20224;-79
2021/04/06 05:26:15;;;;;;;3.47;3.05;;;-0.40;99.90;;;;;;4827121;29;20257;-79
2021/04/06 05:28:41;;;;;;;3.17;2.95;;;-0.50;99.90;;;;;;4827564;29;20214;-79
2021/04/06 05:31:07;;;;;;;3.33;2.92;;;-0.50;99.90;;;;;;4827078;29;20217;-79
2021/04/06 05:33:33;;;;;;;6.15;3.00;;;-0.60;99.90;;;;;;4826962;29;20294;-79
2021/04/06 05:36:00;;;;;;;9.35;3.60;;;-0.50;99.90;;;;;;4827663;29;20233;-79
2021/04/06 05:38:27;;;;;;;2.70;2.50;;;-0.40;99.90;;;;;;4826776;29;20214;-79
2021/04/06 05:40:53;;;;;;;2.88;2.65;;;-0.30;99.90;;;;;;4827517;29;20307;-79
2021/04/06 05:43:20;;;;;;;9.23;5.13;;;-0.30;99.90;;;;;;4826942;29;20217;-78
2021/04/06 05:45:52;;;;;;;2.53;2.33;;;-0.20;99.90;;;;;;4826635;29;20242;-79
2021/04/06 05:48:18;;;;;;;3.97;3.70;;;-0.30;99.90;;;;;;4827090;29;20563;-78
2021/04/06 05:50:46;;;;;;;5.00;2.83;;;-0.20;99.90;;;;;;4827994;29;20215;-80
2021/04/06 05:53:12;;;;;;;4.57;3.40;;;-0.20;99.90;;;;;;4825997;29;20210;-79
2021/04/06 05:55:40;;;;;;;3.20;2.38;;;-0.10;99.90;;;;;;4826351;29;20235;-78
2021/04/06 05:58:06;;;;;;;5.20;2.80;;;0.00;99.90;;;;;;4826174;29;20217;-79
2021/04/06 06:00:33;;;;;;;2.22;2.03;;;0.00;99.90;;;;;;4826084;29;20618;-78
2021/04/06 06:02:59;;;;;;;2.70;2.50;;;0.10;99.90;;;;;;4825497;29;20225;-78
2021/04/06 06:05:26;;;;;;;3.15;2.90;;;0.10;99.90;;;;;;4825879;29;20238;-78
2021/04/06 06:07:52;;;;;;;3.67;2.83;;;0.10;99.90;;;;;;4826522;29;20222;-80
2021/04/06 06:10:27;;;;;;;3.35;3.05;;;0.10;99.90;;;;;;4827327;29;20216;-84
2021/04/06 06:12:55;;;;;;;3.95;3.47;;;0.20;99.90;;;;;;4827248;29;20642;-78
2021/04/06 06:15:21;;;;;;;7.32;4.43;;;0.20;99.90;;;;;;4828009;29;20273;-79
2021/04/06 06:18:04;;;;;;;4.03;3.65;;;0.30;99.90;;;;;;4829384;29;20744;-79
2021/04/06 06:20:31;;;;;;;3.90;3.42;;;0.40;99.90;;;;;;4831817;29;20324;-79
2021/04/06 06:23:17;;;;;;;3.78;2.88;;;0.60;99.90;;;;;;4831550;29;20218;-79
2021/04/06 06:26:14;;;;;;;7.57;2.97;;;0.70;99.90;;;;;;4831266;29;20332;-79
2021/04/06 06:28:42;;;;;;;4.45;2.83;;;0.70;99.90;;;;;;4831254;29;20214;-79
2021/04/06 06:31:09;;;;;;;4.18;3.83;;;0.80;99.90;;;;;;4831907;29;20217;-79
2021/04/06 06:33:36;;;;;;;3.67;3.38;;;0.80;99.90;;;;;;4831326;29;20237;-78
2021/04/06 06:36:05;;;;;;;3.58;2.25;;;0.90;99.90;;;;;;4830679;29;20238;-79
2021/04/06 06:38:34;;;;;;;6.93;3.00;;;0.90;99.90;;;;;;4831310;29;20217;-79
2021/04/06 06:41:11;;;;;;;3.80;3.38;;;1.00;99.90;;;;;;4832095;29;20373;-79
2021/04/06 06:43:38;;;;;;;4.93;3.40;;;0.90;99.90;;;;;;4831575;29;20206;-79
2021/04/06 06:46:17;;;;;;;8.55;3.10;;;1.00;99.90;;;;;;4843461;29;20735;-79
2021/04/06 06:48:53;;;;;;;7.20;3.22;;;1.00;99.90;;;;;;4846002;29;20247;-79
2021/04/06 06:51:19;;;;;;;9.05;3.30;;;1.00;99.90;;;;;;4847313;29;20219;-80
2021/04/06 06:53:46;;;;;;;4.30;2.50;;;1.00;99.90;;;;;;4850562;29;20751;-82
2021/04/06 06:56:12;;;;;;;5.78;2.70;;;1.10;99.90;;;;;;4849940;29;20716;-81
2021/04/06 06:58:41;;;;;;;10.18;2.55;;;1.20;99.90;;;;;;4852127;29;20248;-79
2021/04/06 07:01:21;;;;;;;11.32;3.55;;;1.30;99.90;;;;;;4850981;29;20217;-79
2021/04/06 07:04:01;;;;;;;5.88;3.13;;;1.40;99.90;;;;;;4850051;29;20560;-80
2021/04/06 07:06:27;;;;;;;6.53;2.35;;;1.50;99.90;;;;;;4850634;29;20230;-83
2021/04/06 07:08:54;;;;;;;3.47;2.60;;;1.60;99.90;;;;;;4849762;29;20214;-84
2021/04/06 07:11:21;;;;;;;3.00;2.70;;;1.60;99.90;;;;;;4849723;29;20709;-84
2021/04/06 07:13:51;;;;;;;6.30;3.78;;;1.70;99.90;;;;;;4850815;29;20746;-82
2021/04/06 07:16:19;;;;;;;5.15;3.00;;;1.80;99.90;;;;;;4849748;29;20233;-81
2021/04/06 07:18:47;;;;;;;4.50;3.45;;;1.80;99.90;;;;;;4850081;29;20283;-81
2021/04/06 07:21:16;;;;;;;3.10;2.80;;;1.90;99.90;;;;;;4849809;29;20217;-79
2021/04/06 07:23:54;;;;;;;5.05;2.70;;;1.90;99.90;;;;;;4848834;29;20215;-79
2021/04/06 07:26:21;;;;;;;3.10;2.58;;;2.00;99.90;;;;;;4848210;29;20249;-83
2021/04/06 07:28:48;;;;;;;8.25;3.05;;;2.00;99.90;;;;;;4847617;29;20559;-79
2021/04/06 07:31:16;;;;;;;4.45;3.60;;;2.10;99.90;;;;;;4842629;29;20250;-79
2021/04/06 07:33:46;;;;;;;2.90;2.60;;;2.20;99.90;;;;;;4851883;29;20559;-79
2021/04/06 07:36:19;;;;;;;3.28;2.95;;;2.30;99.90;;;;;;4864744;29;20307;-79
2021/04/06 07:38:47;;;;;;;7.50;3.00;;;2.40;99.90;;;;;;4871042;29;20717;-78
2021/04/06 07:41:15;;;;;;;7.38;3.55;;;2.50;99.90;;;;;;4873229;29;20216;-77
2021/04/06 07:43:42;;;;;;;2.83;2.63;;;2.60;99.90;;;;;;4867980;29;20220;-78
2021/04/06 07:46:09;;;;;;;2.58;1.98;;;2.70;99.90;;;;;;4864576;29;20246;-79
2021/04/06 07:48:45;;;;;;;3.42;2.67;;;2.80;99.90;;;;;;4865130;29;20223;-79
2021/04/06 07:51:25;;;;;;;3.63;2.67;;;2.90;99.90;;;;;;4865825;29;20219;-78
2021/04/06 07:54:02;;;;;;;7.63;3.00;;;3.00;99.90;;;;;;4865072;29;20212;-79
2021/04/06 07:56:51;;;;;;;3.50;3.20;;;3.10;99.90;;;;;;4865352;29;20752;-79
2021/04/06 07:59:51;;;;;;;2.63;2.42;;;3.20;99.90;;;;;;4864708;29;20227;-79
2021/04/06 08:02:36;;;;;;;3.28;2.45;;;3.20;99.90;;;;;;4864015;29;20238;-79
2021/04/06 08:05:10;;;;;;;10.20;4.25;;;3.20;99.90;;;;;;4864277;29;20244;-79
2021/04/06 08:07:37;;;;;;;2.72;2.45;;;3.30;99.90;;;;;;4864542;29;20223;-78
2021/04/06 08:10:40;;;;;;;2.17;2.05;;;3.40;99.90;;;;;;4864114;29;20208;-78
2021/04/06 08:13:10;;;;;;;5.30;3.50;;;3.50;99.90;;;;;;4865225;29;20210;-79
2021/04/06 08:15:36;;;;;;;4.72;3.50;;;3.50;99.90;;;;;;4866267;29;20235;-79
2021/04/06 08:18:05;;;;;;;5.00;3.53;;;3.60;99.90;;;;;;4865183;29;20697;-79
2021/04/06 08:20:36;;;;;;;5.90;3.30;;;3.50;99.90;;;;;;4863513;29;20257;-78
2021/04/06 08:23:04;;;;;;;6.47;2.90;;;3.60;99.90;;;;;;4864466;29;20892;-79
2021/04/06 08:25:54;;;;;;;7.38;3.45;;;3.60;99.90;;;;;;4863656;29;20746;-83
2021/04/06 08:28:42;;;;;;;7.13;3.42;;;3.50;99.90;;;;;;4863301;29;20294;-83
2021/04/06 08:31:29;;;;;;;3.63;2.80;;;3.50;99.90;;;;;;4862024;29;20216;-82
2021/04/06 08:34:39;;;;;;;5.63;3.03;;;3.50;99.90;;;;;;4866430;29;20222;-81
2021/04/06 08:37:14;;;;;;;4.90;2.17;;;3.60;99.90;;;;;;4866153;29;20220;-81
2021/04/06 08:39:41;;;;;;;2.42;2.22;;;3.50;99.90;;;;;;4865103;29;20239;-80
2021/04/06 08:42:14;;;;;;;3.10;2.78;;;3.30;99.90;;;;;;4865139;29;20218;-81
2021/04/06 08:44:40;;;;;;;3.60;3.30;;;3.30;99.90;;;;;;4866183;29;20272;-82
2021/04/06 08:47:07;;;;;;;4.97;2.67;;;3.30;99.90;;;;;;4865646;29;20596;-81
2021/04/06 08:49:41;;;;;;;3.85;2.60;;;3.20;99.90;;;;;;4865030;29;20212;-81
2021/04/06 08:52:16;;;;;;;3.63;3.33;;;3.20;99.90;;;;;;4864659;29;20232;-83
2021/04/06 08:54:42;;;;;;;6.40;2.90;;;3.20;99.90;;;;;;4865209;29;20222;-82
2021/04/06 08:57:09;;;;;;;1.88;1.77;;;3.20;99.90;;;;;;4864968;29;20226;-82
2021/04/06 08:59:39;;;;;;;4.25;3.30;;;3.00;99.90;;;;;;4864893;29;20230;-82
2021/04/06 09:02:08;;;;;;;3.60;2.60;;;2.80;99.90;;;;;;4864403;29;20241;-81
2021/04/06 09:04:36;;;;;;;3.35;1.88;;;2.50;99.90;;;;;;4865866;29;20217;-82
2021/04/06 09:07:16;;;;;;;6.07;2.65;;;2.40;99.90;;;;;;4865355;29;20221;-82
2021/04/06 09:09:42;;;;;;;2.30;1.92;;;2.40;99.90;;;;;;4864507;29;20210;-80
2021/04/06 09:12:10;;;;;;;3.10;2.80;;;2.40;99.90;;;;;;4864195;29;20224;-82
2021/04/06 09:14:37;;;;;;;6.25;2.15;;;2.30;99.90;;;;;;4866212;29;20242;-83
2021/04/06 09:17:07;;;;;;;3.20;2.55;;;2.30;99.90;;;;;;4865818;29;20219;-83
2021/04/06 09:19:35;;;;;;;2.20;2.10;;;2.20;99.90;;;;;;4865557;29;20732;-80
2021/04/06 09:22:04;;;;;;;11.18;2.25;;;2.20;99.90;;;;;;4863988;29;20603;-79
2021/04/06 09:24:31;;;;;;;2.03;1.92;;;2.20;99.90;;;;;;4864125;29;20212;-81
2021/04/06 09:26:59;;;;;;;3.90;2.92;;;2.30;99.90;;;;;;4864496;29;20215;-80
2021/04/06 09:29:26;;;;;;;3.35;3.15;;;2.40;99.90;;;;;;4863902;29;20207;-81
2021/04/06 09:31:54;;;;;;;3.03;2.15;;;2.50;99.90;;;;;;4863747;29;20577;-80
2021/04/06 09:34:22;;;;;;;7.70;3.40;;;2.60;99.90;;;;;;4854807;29;20276;-80
2021/04/06 09:36:53;;;;;;;2.65;2.33;;;2.80;99.90;;;;;;4846340;29;20275;-81
2021/04/06 09:39:19;;;;;;;2.83;2.28;;;3.00;99.90;;;;;;4845855;29;20232;-82
2021/04/06 09:41:46;;;;;;;6.13;2.30;;;3.20;99.90;;;;;;4844992;29;20220;-79
2021/04/06 09:44:17;;;;;;;2.10;2.00;;;3.20;99.90;;;;;;4845373;29;20213;-81
2021/04/06 09:46:46;;;;;;;2.53;2.28;;;3.30;99.90;;;;;;4845390;29;20237;-84
2021/04/06 09:49:13;;;;;;;2.55;2.45;;;3.20;99.90;;;;;;4851682;29;20211;-82
2021/04/06 09:51:45;;;;;;;2.10;1.90;;;3.30;99.90;;;;;;4846060;29;20367;-82
2021/04/06 09:54:12;;;;;;;1.85;1.73;;;3.10;99.90;;;;;;4854769;29;20224;-82
2021/04/06 09:56:39;;;;;;;2.35;1.80;;;2.90;99.90;;;;;;4864597;29;20246;-80
2021/04/06 09:59:08;;;;;;;2.70;2.28;;;2.70;99.90;;;;;;4864880;29;20321;-81
2021/04/06 10:01:36;;;;;;;7.97;2.58;;;2.70;99.90;;;;;;4863749;29;20279;-80
2021/04/06 10:04:04;;;;;;;2.75;2.20;;;2.70;99.90;;;;;;4863719;29;20230;-80
2021/04/06 10:06:35;;;;;;;2.22;2.03;;;2.90;99.90;;;;;;4865734;29;20228;-81
2021/04/06 10:09:17;;;;;;;4.85;2.42;;;3.20;99.90;;;;;;4860990;29;20702;-79
2021/04/06 10:11:44;;;;;;;3.05;2.88;;;3.30;99.90;;;;;;4845520;29;20239;-81
2021/04/06 10:14:12;;;;;;;8.90;3.00;;;3.30;99.90;;;;;;4847374;29;20220;-82
2021/04/06 10:16:38;;;;;;;1.80;1.58;;;3.30;99.90;;;;;;4846806;29;20241;-82
2021/04/06 10:19:18;;;;;;;6.60;2.10;;;3.20;99.90;;;;;;4846531;29;20328;-81
2021/04/06 10:21:44;;;;;;;3.05;1.52;;;2.90;99.90;;;;;;4846347;29;20220;-81
2021/04/06 10:24:11;;;;;;;2.60;1.80;;;2.70;99.90;;;;;;4846925;29;20220;-80
2021/04/06 10:26:51;;;;;;;4.00;2.50;;;2.70;99.90;;;;;;4849999;24;20259;-81
2021/04/06 10:29:51;;;;;;;3.55;1.98;;;2.80;99.90;;;;;;4856103;29;20273;-82
2021/04/06 10:33:03;;;;;;;3.08;2.05;;;2.90;99.90;;;;;;4854877;29;20225;-82
2021/04/06 10:35:58;;;;;;;2.47;1.92;;;3.10;99.90;;;;;;4780140;30;20249;-80
2021/04/06 10:39:03;;;;;;;;;;;;;;;;;;;;;
2021/04/06 10:45:23;;;;;;;2.35;2.15;;;3.00;99.90;;;;;;4754879;29;20253;-82
2021/04/06 10:48:06;;;;;;;1.58;1.45;;;3.10;99.90;;;;;;4779647;30;20209;-81
2021/04/06 10:50:40;;;;;;;3.30;2.20;;;3.10;99.90;;;;;;4777148;30;20215;-80
2021/04/06 10:53:18;;;;;;;1.45;1.35;;;3.30;99.90;;;;;;4826160;29;20281;-83
2021/04/06 10:55:45;;;;;;;1.60;1.50;;;3.10;99.90;;;;;;4843176;29;20252;-83
2021/04/06 10:58:19;;;;;;;3.58;3.28;;;3.10;99.90;;;;;;4841807;29;20625;-81
2021/04/06 11:00:54;;;;;;;4.43;2.10;;;3.10;99.90;;;;;;4838640;29;20262;-82
2021/04/06 11:03:22;;;;;;;1.10;1.00;;;3.10;99.90;;;;;;4849042;29;20216;-79
2021/04/06 11:05:48;;;;;;;3.50;1.85;;;3.10;99.90;;;;;;4856829;29;20745;-81
2021/04/06 11:08:16;;;;;;;5.38;2.42;;;3.40;99.90;;;;;;4853415;29;20237;-81
2021/04/06 11:10:43;;;;;;;1.80;1.70;;;3.70;99.90;;;;;;4853538;29;20706;-82
2021/04/06 11:13:09;;;;;;;2.78;1.80;;;3.50;99.90;;;;;;4846166;29;20226;-82
2021/04/06 11:15:35;;;;;;;5.97;2.75;;;3.50;99.90;;;;;;4858693;29;20271;-82
2021/04/06 11:18:02;;;;;;;3.15;2.45;;;3.80;99.90;;;;;;4872825;29;20220;-80
2021/04/06 11:20:29;;;;;;;1.40;1.35;;;4.40;99.90;;;;;;4861709;29;20542;-81
2021/04/06 11:22:56;;;;;;;2.92;1.75;;;4.50;99.90;;;;;;4860972;29;20205;-80
2021/04/06 11:25:22;;;;;;;2.85;2.60;;;4.30;99.50;;;;;;4860643;29;20243;-80
2021/04/06 11:27:48;;;;;;;3.78;1.73;;;4.00;99.40;;;;;;4855761;29;20229;-81
2021/04/06 11:30:16;;;;;;;2.40;2.15;;;3.60;99.00;;;;;;4851724;29;20315;-81
2021/04/06 11:32:42;;;;;;;1.42;1.33;;;3.40;99.80;;;;;;4848950;29;20261;-81
2021/04/06 11:35:09;;;;;;;4.03;2.00;;;3.70;99.90;;;;;;4850212;29;20212;-81
2021/04/06 11:37:37;;;;;;;1.85;1.75;;;4.20;99.90;;;;;;4850311;29;20274;-81
2021/04/06 11:40:04;;;;;;;3.75;3.35;;;4.70;99.90;;;;;;4849518;29;20608;-81
2021/04/06 11:42:31;;;;;;;3.47;1.95;;;4.80;99.30;;;;;;4848176;29;20226;-81
2021/04/06 11:44:57;;;;;;;2.85;2.33;;;4.60;98.30;;;;;;4847557;29;20218;-81
2021/04/06 11:47:23;;;;;;;2.45;2.35;;;4.30;97.90;;;;;;4848080;29;20220;-82
2021/04/06 11:49:49;;;;;;;2.22;1.50;;;4.10;98.60;;;;;;4848118;29;20213;-81
2021/04/06 11:52:16;;;;;;;1.60;1.50;;;4.00;98.50;;;;;;4847440;29;20217;-81
2021/04/06 11:54:43;;;;;;;4.55;2.42;;;3.50;97.40;;;;;;4847303;29;20222;-81
2021/04/06 11:57:09;;;;;;;3.00;1.45;;;3.20;98.80;;;;;;4846855;29;20251;-83
2021/04/06 11:59:35;;;;;;;4.65;4.43;;;3.40;99.90;;;;;;4846569;29;20240;-83
2021/04/06 12:02:02;;;;;;;1.70;1.60;;;3.70;99.90;;;;;;4847043;29;20221;-83
2021/04/06 12:04:29;;;;;;;2.03;1.92;;;4.50;99.70;;;;;;4846865;29;20277;-83
2021/04/06 12:06:56;;;;;;;3.22;2.35;;;4.20;97.70;;;;;;4846678;29;20233;-82
2021/04/06 12:09:22;;;;;;;3.58;3.38;;;3.50;96.50;;;;;;4846850;29;20576;-83
2021/04/06 12:11:49;;;;;;;3.00;2.20;;;3.30;97.50;;;;;;4846058;29;20233;-83
2021/04/06 12:14:15;;;;;;;1.63;1.52;;;3.60;99.90;;;;;;4846987;29;20213;-83
2021/04/06 12:16:42;;;;;;;2.05;1.90;;;4.00;98.20;;;;;;4846695;29;20237;-81
2021/04/06 12:19:08;;;;;;;2.60;2.42;;;4.10;97.60;;;;;;4858775;29;20219;-82
2021/04/06 12:21:37;;;;;;;2.33;2.22;;;4.70;99.40;;;;;;4860670;29;20224;-82
2021/04/06 12:24:12;;;;;;;2.35;1.85;;;5.00;96.40;;;;;;4861799;29;20213;-83
2021/04/06 12:26:41;;;;;;;2.15;1.75;;;4.80;94.70;;;;;;4859506;29;20251;-84
2021/04/06 13:07:04;;;;;;;2.85;2.75;;;7.40;70.20;;;;;;4695230;30;20250;-83
2021/04/06 16:08:51;;;;;;;3.22;0.93;;;4.20;82.50;;;;;;4711243;30;20297;-83
2021/04/06 16:11:21;;;;;;;1.25;1.25;;;3.90;83.30;;;;;;4776357;29;20249;-84
2021/04/06 20:07:11;;;;;;;2.28;2.08;;;1.40;99.90;;;;;;4749913;30;20251;-85
2021/04/06 20:54:07;;;;;;;4.38;3.97;;;1.20;99.90;;;;;;4743438;30;20214;-86
2021/04/06 20:56:34;;;;;;;5.93;5.35;;;1.10;99.90;;;;;;4813300;29;20238;-85
2021/04/06 20:59:00;;;;;;;5.35;4.30;;;1.30;99.90;;;;;;4822173;29;20305;-83
2021/04/06 21:01:26;;;;;;;5.05;3.95;;;1.40;99.90;;;;;;4822345;29;20218;-85
2021/04/06 21:03:53;;;;;;;5.93;4.30;;;1.40;99.90;;;;;;4823303;29;20228;-83
2021/04/06 21:06:20;;;;;;;3.92;3.60;;;1.50;99.90;;;;;;4822388;29;20238;-84
2021/04/06 21:08:46;;;;;;;3.40;3.10;;;1.60;99.90;;;;;;4820333;29;20250;-85
2021/04/06 21:11:14;;;;;;;4.38;3.92;;;1.70;99.90;;;;;;4820007;29;20355;-83
2021/04/06 21:13:41;;;;;;;5.93;3.80;;;1.70;99.90;;;;;;4821243;29;20258;-85
2021/04/06 21:16:07;;;;;;;4.85;4.05;;;1.70;99.90;;;;;;4820354;29;20318;-85
2021/04/06 21:18:33;;;;;;;3.45;3.15;;;1.70;99.90;;;;;;4820805;29;20217;-86
2021/04/06 21:21:00;;;;;;;4.85;3.95;;;1.80;99.90;;;;;;4822079;29;20221;-85
2021/04/06 21:23:26;;;;;;;3.60;3.13;;;1.80;99.90;;;;;;4819660;29;20215;-85
2021/04/06 21:25:52;;;;;;;3.20;2.90;;;1.80;99.90;;;;;;4819801;29;20243;-84